sensor_id;sensor_type;location;lat;lon;timestamp;noise_LAeq;noise_LA_min;noise_LA_max;noise_LA01;noise_LA95
78074;Laerm;67283;50.960;13.856;2023-07-22T00:01:08;31.77;28.81;43.04;;
78074;Laerm;67283;50.960;13.856;2023-07-22T00:03:37;30.45;28.98;38.53;;
78074;Laerm;67283;50.960;13.856;2023-07-22T00:06:05;30.59;29.12;38.13;;
78074;Laerm;67283;50.960;13.856;2023-07-22T00:08:33;30.59;29.12;38.13;;
78074;Laerm;67283;50.960;13.856;2023-07-22T00:11:02;30.54;28.82;37.28;;
78074;Laerm;67283;50.960;13.856;2023-07-22T00:13:30;30.69;29.11;37.00;;
78074;Laerm;67283;50.960;13.856;2023-07-22T00:16:01;30.59;29.25;37.03;;
78074;Laerm;67283;50.960;13.856;2023-07-22T00:18:29;31.05;28.92;48.98;;
78074;Laerm;67283;50.960;13.856;2023-07-22T00:20:57;30.73;29.10;36.94;;
78074;Laerm;67283;50.960;13.856;2023-07-22T00:23:25;30.76;28.99;48.96;;
78074;Laerm;67283;50.960;13.856;2023-07-22T00:25:55;30.61;28.96;37.23;;
78074;Laerm;67283;50.960;13.856;2023-07-22T00:28:23;32.30;29.27;41.92;;
78074;Laerm;67283;50.960;13.856;2023-07-22T00:30:51;31.42;29.21;37.33;;
78074;Laerm;67283;50.960;13.856;2023-07-22T00:33:22;31.46;29.18;58.94;;
78074;Laerm;67283;50.960;13.856;2023-07-22T00:35:50;54.02;29.31;73.46;;
78074;Laerm;67283;50.960;13.856;2023-07-22T00:38:19;32.05;29.44;48.33;;
78074;Laerm;67283;50.960;13.856;2023-07-22T00:40:47;30.80;29.07;37.69;;
78074;Laerm;67283;50.960;13.856;2023-07-22T00:43:15;30.74;29.33;37.69;;
78074;Laerm;67283;50.960;13.856;2023-07-22T00:45:43;30.71;29.02;38.22;;
78074;Laerm;67283;50.960;13.856;2023-07-22T00:48:11;30.60;29.08;37.21;;
78074;Laerm;67283;50.960;13.856;2023-07-22T00:50:43;30.61;28.86;38.11;;
78074;Laerm;67283;50.960;13.856;2023-07-22T00:53:12;56.02;29.48;72.13;;
78074;Laerm;67283;50.960;13.856;2023-07-22T00:55:40;30.51;28.99;37.47;;
78074;Laerm;67283;50.960;13.856;2023-07-22T00:58:08;30.47;28.81;37.31;;
78074;Laerm;67283;50.960;13.856;2023-07-22T01:00:36;30.70;28.67;37.46;;
78074;Laerm;67283;50.960;13.856;2023-07-22T01:03:04;30.72;29.16;37.55;;
78074;Laerm;67283;50.960;13.856;2023-07-22T01:05:34;30.97;28.82;52.46;;
78074;Laerm;67283;50.960;13.856;2023-07-22T01:08:06;30.97;28.82;52.46;;
78074;Laerm;67283;50.960;13.856;2023-07-22T01:10:35;30.67;28.79;37.65;;
78074;Laerm;67283;50.960;13.856;2023-07-22T01:13:03;32.14;28.59;62.36;;
78074;Laerm;67283;50.960;13.856;2023-07-22T01:15:31;55.26;29.01;73.26;;
78074;Laerm;67283;50.960;13.856;2023-07-22T01:17:59;55.65;28.91;72.77;;
78074;Laerm;67283;50.960;13.856;2023-07-22T01:20:29;30.21;28.59;38.50;;
78074;Laerm;67283;50.960;13.856;2023-07-22T01:23:00;56.18;29.16;74.04;;
78074;Laerm;67283;50.960;13.856;2023-07-22T01:25:29;45.33;28.99;66.45;;
78074;Laerm;67283;50.960;13.856;2023-07-22T01:27:57;30.38;28.85;36.95;;
78074;Laerm;67283;50.960;13.856;2023-07-22T01:30:25;30.39;28.86;37.48;;
78074;Laerm;67283;50.960;13.856;2023-07-22T01:32:54;32.97;28.98;51.13;;
78074;Laerm;67283;50.960;13.856;2023-07-22T01:35:22;32.97;28.98;51.13;;
78074;Laerm;67283;50.960;13.856;2023-07-22T01:37:51;30.43;28.61;38.19;;
78074;Laerm;67283;50.960;13.856;2023-07-22T01:40:24;48.27;28.93;63.23;;
78074;Laerm;67283;50.960;13.856;2023-07-22T01:42:53;30.51;28.84;37.54;;
78074;Laerm;67283;50.960;13.856;2023-07-22T01:45:21;30.83;29.38;37.03;;
78074;Laerm;67283;50.960;13.856;2023-07-22T01:47:50;30.87;29.32;37.15;;
78074;Laerm;67283;50.960;13.856;2023-07-22T01:50:18;32.36;29.64;40.67;;
78074;Laerm;67283;50.960;13.856;2023-07-22T01:52:47;32.36;29.64;40.67;;
78074;Laerm;67283;50.960;13.856;2023-07-22T01:55:15;30.95;29.25;37.92;;
78074;Laerm;67283;50.960;13.856;2023-07-22T01:57:46;30.69;29.12;37.79;;
78074;Laerm;67283;50.960;13.856;2023-07-22T02:00:14;32.39;29.15;42.69;;
78074;Laerm;67283;50.960;13.856;2023-07-22T02:02:42;31.96;29.07;40.09;;
78074;Laerm;67283;50.960;13.856;2023-07-22T02:05:10;49.01;29.06;67.60;;
78074;Laerm;67283;50.960;13.856;2023-07-22T02:07:38;32.09;29.08;42.85;;
78074;Laerm;67283;50.960;13.856;2023-07-22T02:10:07;50.99;29.11;68.52;;
78074;Laerm;67283;50.960;13.856;2023-07-22T02:12:35;30.38;28.84;37.83;;
78074;Laerm;67283;50.960;13.856;2023-07-22T02:15:07;52.83;28.99;70.46;;
78074;Laerm;67283;50.960;13.856;2023-07-22T02:17:35;52.83;28.99;70.46;;
78074;Laerm;67283;50.960;13.856;2023-07-22T02:20:04;52.83;28.99;70.46;;
78074;Laerm;67283;50.960;13.856;2023-07-22T02:22:34;33.75;28.78;53.99;;
78074;Laerm;67283;50.960;13.856;2023-07-22T02:25:02;52.12;29.09;69.72;;
78074;Laerm;67283;50.960;13.856;2023-07-22T02:27:30;54.18;29.04;74.23;;
78074;Laerm;67283;50.960;13.856;2023-07-22T02:30:00;36.87;28.82;51.13;;
78074;Laerm;67283;50.960;13.856;2023-07-22T02:32:31;30.35;28.59;37.04;;
78074;Laerm;67283;50.960;13.856;2023-07-22T02:34:59;56.16;30.13;69.39;;
78074;Laerm;67283;50.960;13.856;2023-07-22T02:37:28;51.86;28.79;71.21;;
78074;Laerm;67283;50.960;13.856;2023-07-22T02:39:56;31.87;28.64;52.03;;
78074;Laerm;67283;50.960;13.856;2023-07-22T02:42:24;53.40;28.65;71.16;;
78074;Laerm;67283;50.960;13.856;2023-07-22T02:44:52;30.35;28.70;52.13;;
78074;Laerm;67283;50.960;13.856;2023-07-22T02:47:20;52.39;28.77;69.91;;
78074;Laerm;67283;50.960;13.856;2023-07-22T02:49:51;52.39;28.77;69.91;;
78074;Laerm;67283;50.960;13.856;2023-07-22T02:52:19;31.27;28.69;45.05;;
78074;Laerm;67283;50.960;13.856;2023-07-22T02:57:30;43.98;28.59;65.13;;
78074;Laerm;67283;50.960;13.856;2023-07-22T02:59:58;49.24;28.76;68.53;;
78074;Laerm;67283;50.960;13.856;2023-07-22T03:02:30;30.54;28.38;37.87;;
78074;Laerm;67283;50.960;13.856;2023-07-22T03:05:01;52.67;28.86;70.21;;
78074;Laerm;67283;50.960;13.856;2023-07-22T03:07:32;36.35;28.77;52.26;;
78074;Laerm;67283;50.960;13.856;2023-07-22T03:10:00;52.31;28.94;71.39;;
78074;Laerm;67283;50.960;13.856;2023-07-22T03:12:29;54.88;29.19;68.94;;
78074;Laerm;67283;50.960;13.856;2023-07-22T03:14:57;46.27;29.05;63.25;;
78074;Laerm;67283;50.960;13.856;2023-07-22T03:17:25;31.36;28.88;42.90;;
78074;Laerm;67283;50.960;13.856;2023-07-22T03:19:53;31.36;28.88;42.90;;
78074;Laerm;67283;50.960;13.856;2023-07-22T03:22:24;54.70;28.91;70.98;;
78074;Laerm;67283;50.960;13.856;2023-07-22T03:24:52;54.70;28.91;70.98;;
78074;Laerm;67283;50.960;13.856;2023-07-22T03:27:20;51.67;29.10;69.59;;
78074;Laerm;67283;50.960;13.856;2023-07-22T03:29:48;53.42;29.37;68.89;;
78074;Laerm;67283;50.960;13.856;2023-07-22T03:32:16;33.61;29.31;50.05;;
78074;Laerm;67283;50.960;13.856;2023-07-22T03:34:44;50.65;29.34;67.47;;
78074;Laerm;67283;50.960;13.856;2023-07-22T03:37:13;32.86;29.15;48.06;;
78074;Laerm;67283;50.960;13.856;2023-07-22T03:39:43;49.17;29.28;65.23;;
78074;Laerm;67283;50.960;13.856;2023-07-22T03:42:11;50.92;29.24;69.00;;
78074;Laerm;67283;50.960;13.856;2023-07-22T03:44:39;49.19;29.61;67.04;;
78074;Laerm;67283;50.960;13.856;2023-07-22T03:47:07;49.19;29.61;67.04;;
78074;Laerm;67283;50.960;13.856;2023-07-22T03:49:35;52.29;29.41;71.62;;
78074;Laerm;67283;50.960;13.856;2023-07-22T03:52:04;58.01;30.01;71.71;;
78074;Laerm;67283;50.960;13.856;2023-07-22T03:54:32;31.52;29.30;44.68;;
78074;Laerm;67283;50.960;13.856;2023-07-22T03:57:03;32.79;29.48;51.59;;
78074;Laerm;67283;50.960;13.856;2023-07-22T03:59:31;32.38;29.35;50.46;;
78074;Laerm;67283;50.960;13.856;2023-07-22T04:01:59;50.61;29.87;68.52;;
78074;Laerm;67283;50.960;13.856;2023-07-22T04:04:27;33.17;30.14;43.09;;
78074;Laerm;67283;50.960;13.856;2023-07-22T04:06:55;51.89;29.62;68.77;;
78074;Laerm;67283;50.960;13.856;2023-07-22T04:09:24;52.17;29.64;69.83;;
78074;Laerm;67283;50.960;13.856;2023-07-22T04:11:52;36.54;29.54;51.04;;
78074;Laerm;67283;50.960;13.856;2023-07-22T04:14:22;51.85;29.65;64.77;;
78074;Laerm;67283;50.960;13.856;2023-07-22T04:16:50;52.64;30.26;69.86;;
78074;Laerm;67283;50.960;13.856;2023-07-22T04:19:18;35.57;29.59;51.85;;
78074;Laerm;67283;50.960;13.856;2023-07-22T04:21:47;52.73;29.81;69.94;;
78074;Laerm;67283;50.960;13.856;2023-07-22T04:24:15;55.51;30.45;71.23;;
78074;Laerm;67283;50.960;13.856;2023-07-22T04:26:44;32.94;29.34;42.74;;
78074;Laerm;67283;50.960;13.856;2023-07-22T04:29:12;52.06;29.47;67.49;;
78074;Laerm;67283;50.960;13.856;2023-07-22T04:31:43;51.57;29.44;69.46;;
78074;Laerm;67283;50.960;13.856;2023-07-22T04:34:11;60.88;29.63;78.59;;
78074;Laerm;67283;50.960;13.856;2023-07-22T04:36:39;36.40;29.11;51.02;;
78074;Laerm;67283;50.960;13.856;2023-07-22T04:39:08;49.44;29.13;67.18;;
78074;Laerm;67283;50.960;13.856;2023-07-22T04:41:36;53.71;30.49;71.22;;
78074;Laerm;67283;50.960;13.856;2023-07-22T04:44:04;55.18;30.14;70.25;;
78074;Laerm;67283;50.960;13.856;2023-07-22T04:46:33;51.17;29.92;69.60;;
78074;Laerm;67283;50.960;13.856;2023-07-22T04:49:03;51.17;29.92;69.60;;
78074;Laerm;67283;50.960;13.856;2023-07-22T04:51:31;53.17;30.38;71.31;;
78074;Laerm;67283;50.960;13.856;2023-07-22T04:53:59;53.17;30.38;71.31;;
78074;Laerm;67283;50.960;13.856;2023-07-22T04:56:27;60.09;31.47;82.08;;
78074;Laerm;67283;50.960;13.856;2023-07-22T04:58:56;55.95;31.54;74.45;;
78074;Laerm;67283;50.960;13.856;2023-07-22T05:01:24;40.38;29.99;54.64;;
78074;Laerm;67283;50.960;13.856;2023-07-22T05:03:52;57.15;30.48;73.88;;
78074;Laerm;67283;50.960;13.856;2023-07-22T05:06:23;51.26;29.81;68.69;;
78074;Laerm;67283;50.960;13.856;2023-07-22T05:08:51;56.59;29.82;73.20;;
78074;Laerm;67283;50.960;13.856;2023-07-22T05:11:19;51.52;30.18;67.25;;
78074;Laerm;67283;50.960;13.856;2023-07-22T05:13:48;36.82;29.98;48.54;;
78074;Laerm;67283;50.960;13.856;2023-07-22T05:16:16;31.90;29.32;40.96;;
78074;Laerm;67283;50.960;13.856;2023-07-22T05:18:46;56.52;30.11;72.85;;
78074;Laerm;67283;50.960;13.856;2023-07-22T05:21:14;56.16;29.78;70.70;;
78074;Laerm;67283;50.960;13.856;2023-07-22T05:23:45;54.53;30.33;73.60;;
78074;Laerm;67283;50.960;13.856;2023-07-22T05:26:13;51.25;29.67;68.40;;
78074;Laerm;67283;50.960;13.856;2023-07-22T05:28:41;54.37;29.07;69.42;;
78074;Laerm;67283;50.960;13.856;2023-07-22T05:31:09;34.15;29.33;51.07;;
78074;Laerm;67283;50.960;13.856;2023-07-22T05:33:37;43.75;29.85;62.29;;
78074;Laerm;67283;50.960;13.856;2023-07-22T05:36:05;58.87;31.32;71.76;;
78074;Laerm;67283;50.960;13.856;2023-07-22T05:38:33;54.32;30.51;70.69;;
78074;Laerm;67283;50.960;13.856;2023-07-22T05:41:04;52.52;32.40;67.68;;
78074;Laerm;67283;50.960;13.856;2023-07-22T05:43:32;58.88;30.81;77.79;;
78074;Laerm;67283;50.960;13.856;2023-07-22T05:46:00;56.04;31.87;75.82;;
78074;Laerm;67283;50.960;13.856;2023-07-22T05:48:28;61.65;29.92;80.05;;
78074;Laerm;67283;50.960;13.856;2023-07-22T05:50:56;61.65;29.92;80.05;;
78074;Laerm;67283;50.960;13.856;2023-07-22T05:53:24;50.34;29.64;69.74;;
78074;Laerm;67283;50.960;13.856;2023-07-22T05:55:53;50.42;30.47;69.85;;
78074;Laerm;67283;50.960;13.856;2023-07-22T05:58:23;49.30;31.44;66.47;;
78074;Laerm;67283;50.960;13.856;2023-07-22T06:00:49;53.09;33.71;68.41;;
78074;Laerm;67283;50.960;13.856;2023-07-22T06:03:17;50.89;31.16;67.35;;
78074;Laerm;67283;50.960;13.856;2023-07-22T06:05:46;57.30;31.13;71.67;;
78074;Laerm;67283;50.960;13.856;2023-07-22T06:08:14;56.93;30.71;72.02;;
78074;Laerm;67283;50.960;13.856;2023-07-22T06:10:42;49.95;30.77;67.33;;
78074;Laerm;67283;50.960;13.856;2023-07-22T06:13:10;49.95;30.77;67.33;;
78074;Laerm;67283;50.960;13.856;2023-07-22T06:15:41;57.03;30.74;73.42;;
78074;Laerm;67283;50.960;13.856;2023-07-22T06:18:09;48.16;31.77;67.75;;
78074;Laerm;67283;50.960;13.856;2023-07-22T06:20:38;51.83;32.49;69.45;;
78074;Laerm;67283;50.960;13.856;2023-07-22T06:23:06;51.09;31.27;68.52;;
78074;Laerm;67283;50.960;13.856;2023-07-22T06:25:34;57.43;30.36;72.94;;
78074;Laerm;67283;50.960;13.856;2023-07-22T06:28:02;49.88;30.68;73.91;;
78074;Laerm;67283;50.960;13.856;2023-07-22T06:30:30;60.17;30.91;73.24;;
78074;Laerm;67283;50.960;13.856;2023-07-22T06:33:01;57.11;33.23;73.20;;
78074;Laerm;67283;50.960;13.856;2023-07-22T06:35:29;51.54;34.91;71.14;;
78074;Laerm;67283;50.960;13.856;2023-07-22T06:37:57;52.84;33.93;69.15;;
78074;Laerm;67283;50.960;13.856;2023-07-22T06:40:25;54.65;32.77;71.13;;
78074;Laerm;67283;50.960;13.856;2023-07-22T06:42:53;54.17;31.59;68.70;;
78074;Laerm;67283;50.960;13.856;2023-07-22T06:45:21;59.43;32.59;71.22;;
78074;Laerm;67283;50.960;13.856;2023-07-22T06:47:49;55.79;31.46;71.09;;
78074;Laerm;67283;50.960;13.856;2023-07-22T06:50:20;52.67;30.45;70.83;;
78074;Laerm;67283;50.960;13.856;2023-07-22T06:52:48;52.67;30.45;70.83;;
78074;Laerm;67283;50.960;13.856;2023-07-22T06:55:16;59.77;31.45;78.46;;
78074;Laerm;67283;50.960;13.856;2023-07-22T06:57:45;55.25;31.47;70.22;;
78074;Laerm;67283;50.960;13.856;2023-07-22T07:00:13;59.80;33.11;73.34;;
78074;Laerm;67283;50.960;13.856;2023-07-22T07:02:41;59.94;30.91;72.72;;
78074;Laerm;67283;50.960;13.856;2023-07-22T07:05:10;35.50;30.07;56.05;;
78074;Laerm;67283;50.960;13.856;2023-07-22T07:07:40;55.40;30.02;69.60;;
78074;Laerm;67283;50.960;13.856;2023-07-22T07:10:09;59.49;32.82;71.47;;
78074;Laerm;67283;50.960;13.856;2023-07-22T07:12:37;59.46;34.89;72.62;;
78074;Laerm;67283;50.960;13.856;2023-07-22T07:15:05;52.42;32.94;70.15;;
78074;Laerm;67283;50.960;13.856;2023-07-22T07:17:34;55.19;30.69;71.72;;
78074;Laerm;67283;50.960;13.856;2023-07-22T07:20:02;55.19;30.69;71.72;;
78074;Laerm;67283;50.960;13.856;2023-07-22T07:22:30;56.05;30.95;70.09;;
78074;Laerm;67283;50.960;13.856;2023-07-22T07:25:01;56.79;34.66;70.38;;
78074;Laerm;67283;50.960;13.856;2023-07-22T07:27:29;58.40;33.33;73.98;;
78074;Laerm;67283;50.960;13.856;2023-07-22T07:29:57;57.89;33.88;71.17;;
78074;Laerm;67283;50.960;13.856;2023-07-22T07:32:25;57.89;33.88;71.17;;
78074;Laerm;67283;50.960;13.856;2023-07-22T07:34:53;57.34;32.53;74.23;;
78074;Laerm;67283;50.960;13.856;2023-07-22T07:37:22;58.23;33.17;70.47;;
78074;Laerm;67283;50.960;13.856;2023-07-22T07:39:50;58.15;30.62;74.86;;
78074;Laerm;67283;50.960;13.856;2023-07-22T07:42:21;58.76;31.39;72.85;;
78074;Laerm;67283;50.960;13.856;2023-07-22T07:44:49;55.79;33.07;70.63;;
78074;Laerm;67283;50.960;13.856;2023-07-22T07:47:17;54.37;34.07;67.83;;
78074;Laerm;67283;50.960;13.856;2023-07-22T07:49:45;63.91;35.97;79.18;;
78074;Laerm;67283;50.960;13.856;2023-07-22T07:52:14;60.53;35.60;82.90;;
78074;Laerm;67283;50.960;13.856;2023-07-22T07:54:42;59.37;36.03;77.05;;
78074;Laerm;67283;50.960;13.856;2023-07-22T07:57:10;59.88;32.78;77.92;;
78074;Laerm;67283;50.960;13.856;2023-07-22T07:59:40;53.69;30.66;69.73;;
78074;Laerm;67283;50.960;13.856;2023-07-22T08:02:08;59.86;31.15;74.34;;
78074;Laerm;67283;50.960;13.856;2023-07-22T08:04:37;58.79;34.93;73.82;;
78074;Laerm;67283;50.960;13.856;2023-07-22T08:07:05;57.70;32.99;71.90;;
78074;Laerm;67283;50.960;13.856;2023-07-22T08:09:34;60.95;36.30;71.58;;
78074;Laerm;67283;50.960;13.856;2023-07-22T08:12:02;61.20;39.83;75.35;;
78074;Laerm;67283;50.960;13.856;2023-07-22T08:14:30;58.24;34.77;70.88;;
78074;Laerm;67283;50.960;13.856;2023-07-22T08:17:01;58.00;34.32;70.49;;
78074;Laerm;67283;50.960;13.856;2023-07-22T08:19:29;62.21;37.81;78.14;;
78074;Laerm;67283;50.960;13.856;2023-07-22T08:21:57;56.57;31.44;71.73;;
78074;Laerm;67283;50.960;13.856;2023-07-22T08:24:25;60.32;34.27;71.68;;
78074;Laerm;67283;50.960;13.856;2023-07-22T08:26:53;60.12;37.51;72.58;;
78074;Laerm;67283;50.960;13.856;2023-07-22T08:29:21;57.99;32.69;72.51;;
78074;Laerm;67283;50.960;13.856;2023-07-22T08:31:49;57.62;35.26;76.43;;
78074;Laerm;67283;50.960;13.856;2023-07-22T08:34:20;56.72;34.38;73.73;;
78074;Laerm;67283;50.960;13.856;2023-07-22T08:36:48;64.08;33.44;79.54;;
78074;Laerm;67283;50.960;13.856;2023-07-22T08:39:17;59.15;33.21;74.11;;
78074;Laerm;67283;50.960;13.856;2023-07-22T08:41:47;59.30;35.44;71.20;;
78074;Laerm;67283;50.960;13.856;2023-07-22T08:44:17;59.30;35.44;71.20;;
78074;Laerm;67283;50.960;13.856;2023-07-22T08:46:46;59.30;35.44;71.20;;
78074;Laerm;67283;50.960;13.856;2023-07-22T08:49:15;58.26;33.99;73.72;;
78074;Laerm;67283;50.960;13.856;2023-07-22T08:51:45;57.11;34.39;72.82;;
78074;Laerm;67283;50.960;13.856;2023-07-22T08:54:14;56.41;33.48;70.89;;
78074;Laerm;67283;50.960;13.856;2023-07-22T08:56:42;60.27;37.50;75.24;;
78074;Laerm;67283;50.960;13.856;2023-07-22T08:59:10;59.26;36.15;74.65;;
78074;Laerm;67283;50.960;13.856;2023-07-22T09:01:39;59.26;36.15;74.65;;
78074;Laerm;67283;50.960;13.856;2023-07-22T09:04:08;58.93;32.13;77.44;;
78074;Laerm;67283;50.960;13.856;2023-07-22T09:06:36;59.76;30.76;74.83;;
78074;Laerm;67283;50.960;13.856;2023-07-22T09:09:07;57.58;37.44;76.07;;
78074;Laerm;67283;50.960;13.856;2023-07-22T09:11:37;60.57;30.94;73.97;;
78074;Laerm;67283;50.960;13.856;2023-07-22T09:14:05;57.64;31.65;71.32;;
78074;Laerm;67283;50.960;13.856;2023-07-22T09:16:34;59.96;34.17;75.98;;
78074;Laerm;67283;50.960;13.856;2023-07-22T09:19:03;58.78;35.72;74.40;;
78074;Laerm;67283;50.960;13.856;2023-07-22T09:21:31;55.86;34.61;71.50;;
78074;Laerm;67283;50.960;13.856;2023-07-22T09:24:00;55.86;34.61;71.50;;
78074;Laerm;67283;50.960;13.856;2023-07-22T09:26:32;60.89;36.69;87.95;;
78074;Laerm;67283;50.960;13.856;2023-07-22T09:29:00;61.70;41.40;79.71;;
78074;Laerm;67283;50.960;13.856;2023-07-22T09:31:28;59.83;35.57;85.38;;
78074;Laerm;67283;50.960;13.856;2023-07-22T09:34:08;58.95;36.32;81.85;;
78074;Laerm;67283;50.960;13.856;2023-07-22T09:36:45;56.65;34.30;73.90;;
78074;Laerm;67283;50.960;13.856;2023-07-22T09:39:16;60.96;35.22;76.02;;
78074;Laerm;67283;50.960;13.856;2023-07-22T09:41:47;60.22;33.48;75.70;;
78074;Laerm;67283;50.960;13.856;2023-07-22T09:44:15;59.18;36.28;72.04;;
78074;Laerm;67283;50.960;13.856;2023-07-22T09:46:46;56.04;34.13;72.85;;
78074;Laerm;67283;50.960;13.856;2023-07-22T09:49:12;58.05;34.74;71.27;;
78074;Laerm;67283;50.960;13.856;2023-07-22T09:51:41;63.50;35.89;79.36;;
78074;Laerm;67283;50.960;13.856;2023-07-22T09:54:09;57.46;35.67;73.06;;
78074;Laerm;67283;50.960;13.856;2023-07-22T09:56:43;58.06;36.25;75.32;;
78074;Laerm;67283;50.960;13.856;2023-07-22T09:59:14;62.51;42.10;76.56;;
78074;Laerm;67283;50.960;13.856;2023-07-22T10:01:43;61.63;36.46;79.38;;
78074;Laerm;67283;50.960;13.856;2023-07-22T10:04:12;69.57;36.73;93.54;;
78074;Laerm;67283;50.960;13.856;2023-07-22T10:06:43;60.40;34.38;84.99;;
78074;Laerm;67283;50.960;13.856;2023-07-22T10:09:11;71.30;40.15;84.46;;
78074;Laerm;67283;50.960;13.856;2023-07-22T10:11:40;64.03;36.31;79.19;;
78074;Laerm;67283;50.960;13.856;2023-07-22T10:14:08;62.69;35.49;78.10;;
78074;Laerm;67283;50.960;13.856;2023-07-22T10:16:40;57.38;38.32;73.82;;
78074;Laerm;67283;50.960;13.856;2023-07-22T10:19:08;56.61;35.19;71.43;;
78074;Laerm;67283;50.960;13.856;2023-07-22T10:21:36;56.61;35.19;71.43;;
78074;Laerm;67283;50.960;13.856;2023-07-22T10:24:06;60.21;32.12;74.32;;
78074;Laerm;67283;50.960;13.856;2023-07-22T10:26:34;55.74;34.64;69.83;;
78074;Laerm;67283;50.960;13.856;2023-07-22T10:29:02;60.96;34.16;76.40;;
78074;Laerm;67283;50.960;13.856;2023-07-22T10:31:31;66.13;32.23;81.55;;
78074;Laerm;67283;50.960;13.856;2023-07-22T10:34:01;69.62;35.23;86.37;;
78074;Laerm;67283;50.960;13.856;2023-07-22T10:36:30;58.72;33.65;72.86;;
78074;Laerm;67283;50.960;13.856;2023-07-22T10:38:59;58.45;35.90;71.01;;
78074;Laerm;67283;50.960;13.856;2023-07-22T10:41:27;57.32;34.93;71.02;;
78074;Laerm;67283;50.960;13.856;2023-07-22T10:43:56;59.44;31.82;72.38;;
78074;Laerm;67283;50.960;13.856;2023-07-22T10:46:34;59.38;31.28;72.90;;
78074;Laerm;67283;50.960;13.856;2023-07-22T10:49:16;59.38;31.28;72.90;;
78074;Laerm;67283;50.960;13.856;2023-07-22T10:51:47;59.33;33.81;75.83;;
78074;Laerm;67283;50.960;13.856;2023-07-22T10:54:15;55.59;33.96;68.64;;
78074;Laerm;67283;50.960;13.856;2023-07-22T10:57:02;57.49;32.80;69.74;;
78074;Laerm;67283;50.960;13.856;2023-07-22T10:59:32;56.54;30.15;71.30;;
78074;Laerm;67283;50.960;13.856;2023-07-22T11:02:01;56.55;30.44;69.26;;
78074;Laerm;67283;50.960;13.856;2023-07-22T11:04:32;50.36;30.52;68.49;;
78074;Laerm;67283;50.960;13.856;2023-07-22T11:07:02;59.05;33.19;73.38;;
78074;Laerm;67283;50.960;13.856;2023-07-22T11:09:34;59.05;33.19;73.38;;
78074;Laerm;67283;50.960;13.856;2023-07-22T11:12:00;61.43;31.99;78.04;;
78074;Laerm;67283;50.960;13.856;2023-07-22T11:14:29;61.43;31.99;78.04;;
78074;Laerm;67283;50.960;13.856;2023-07-22T11:16:58;53.73;30.72;71.06;;
78074;Laerm;67283;50.960;13.856;2023-07-22T11:19:28;56.26;33.26;71.54;;
78074;Laerm;67283;50.960;13.856;2023-07-22T11:21:59;58.85;35.33;72.70;;
78074;Laerm;67283;50.960;13.856;2023-07-22T11:24:28;57.93;34.49;74.36;;
78074;Laerm;67283;50.960;13.856;2023-07-22T11:26:56;64.24;31.58;84.01;;
78074;Laerm;67283;50.960;13.856;2023-07-22T11:29:24;57.40;32.52;74.00;;
78074;Laerm;67283;50.960;13.856;2023-07-22T11:31:52;58.55;31.60;72.26;;
78074;Laerm;67283;50.960;13.856;2023-07-22T11:34:21;58.42;32.78;71.97;;
78074;Laerm;67283;50.960;13.856;2023-07-22T11:36:50;68.73;40.57;86.83;;
78074;Laerm;67283;50.960;13.856;2023-07-22T11:39:21;58.41;33.11;75.44;;
78074;Laerm;67283;50.960;13.856;2023-07-22T11:41:50;57.54;33.69;72.24;;
78074;Laerm;67283;50.960;13.856;2023-07-22T11:44:19;62.09;33.02;77.98;;
78074;Laerm;67283;50.960;13.856;2023-07-22T11:46:47;59.03;32.29;75.06;;
78074;Laerm;67283;50.960;13.856;2023-07-22T11:49:26;62.95;34.18;79.29;;
78074;Laerm;67283;50.960;13.856;2023-07-22T11:51:55;55.50;30.90;69.58;;
78074;Laerm;67283;50.960;13.856;2023-07-22T11:54:26;54.16;31.06;69.41;;
78074;Laerm;67283;50.960;13.856;2023-07-22T11:56:54;55.65;31.70;72.86;;
78074;Laerm;67283;50.960;13.856;2023-07-22T11:59:36;60.78;33.08;74.55;;
78074;Laerm;67283;50.960;13.856;2023-07-22T12:02:04;60.43;31.86;79.71;;
78074;Laerm;67283;50.960;13.856;2023-07-22T12:04:33;59.27;30.61;72.15;;
78074;Laerm;67283;50.960;13.856;2023-07-22T12:07:02;55.94;30.31;69.29;;
78074;Laerm;67283;50.960;13.856;2023-07-22T12:09:34;58.66;34.68;71.57;;
78074;Laerm;67283;50.960;13.856;2023-07-22T12:12:02;61.00;30.89;76.13;;
78074;Laerm;67283;50.960;13.856;2023-07-22T12:14:34;58.35;31.68;72.55;;
78074;Laerm;67283;50.960;13.856;2023-07-22T12:17:02;60.14;30.48;74.95;;
78074;Laerm;67283;50.960;13.856;2023-07-22T12:19:30;60.48;35.35;73.28;;
78074;Laerm;67283;50.960;13.856;2023-07-22T12:21:58;56.47;31.32;70.14;;
78074;Laerm;67283;50.960;13.856;2023-07-22T12:24:27;59.46;33.36;73.40;;
78074;Laerm;67283;50.960;13.856;2023-07-22T12:26:57;61.14;33.21;75.10;;
78074;Laerm;67283;50.960;13.856;2023-07-22T12:29:25;56.65;30.98;69.99;;
78074;Laerm;67283;50.960;13.856;2023-07-22T12:31:54;60.91;35.16;72.78;;
78074;Laerm;67283;50.960;13.856;2023-07-22T12:34:22;58.81;31.30;75.46;;
78074;Laerm;67283;50.960;13.856;2023-07-22T12:36:50;63.76;32.73;83.85;;
78074;Laerm;67283;50.960;13.856;2023-07-22T12:39:18;58.96;38.91;72.97;;
78074;Laerm;67283;50.960;13.856;2023-07-22T12:41:46;57.56;31.97;72.51;;
78074;Laerm;67283;50.960;13.856;2023-07-22T12:44:16;58.07;31.19;73.70;;
78074;Laerm;67283;50.960;13.856;2023-07-22T12:46:44;55.94;30.35;68.92;;
78074;Laerm;67283;50.960;13.856;2023-07-22T12:49:12;55.94;30.35;68.92;;
78074;Laerm;67283;50.960;13.856;2023-07-22T12:51:41;59.05;30.08;73.73;;
78074;Laerm;67283;50.960;13.856;2023-07-22T12:54:09;59.40;31.48;71.79;;
78074;Laerm;67283;50.960;13.856;2023-07-22T12:56:37;59.06;31.36;71.06;;
78074;Laerm;67283;50.960;13.856;2023-07-22T12:59:05;60.78;36.81;75.16;;
78074;Laerm;67283;50.960;13.856;2023-07-22T13:01:35;56.46;31.08;70.20;;
78074;Laerm;67283;50.960;13.856;2023-07-22T13:04:06;54.44;31.21;71.31;;
78074;Laerm;67283;50.960;13.856;2023-07-22T13:06:34;59.56;33.75;72.92;;
78074;Laerm;67283;50.960;13.856;2023-07-22T13:09:03;57.64;34.51;69.51;;
78074;Laerm;67283;50.960;13.856;2023-07-22T13:11:31;65.88;32.87;80.75;;
78074;Laerm;67283;50.960;13.856;2023-07-22T13:13:59;57.41;33.65;71.99;;
78074;Laerm;67283;50.960;13.856;2023-07-22T13:16:27;57.93;34.50;72.07;;
78074;Laerm;67283;50.960;13.856;2023-07-22T13:18:58;57.92;32.93;72.38;;
78074;Laerm;67283;50.960;13.856;2023-07-22T13:21:28;54.22;30.72;69.26;;
78074;Laerm;67283;50.960;13.856;2023-07-22T13:23:56;58.83;33.22;73.23;;
78074;Laerm;67283;50.960;13.856;2023-07-22T13:26:24;59.80;31.93;75.14;;
78074;Laerm;67283;50.960;13.856;2023-07-22T13:28:52;55.79;30.41;71.64;;
78074;Laerm;67283;50.960;13.856;2023-07-22T13:31:20;56.12;30.27;70.25;;
78074;Laerm;67283;50.960;13.856;2023-07-22T13:33:48;58.82;30.32;71.70;;
78074;Laerm;67283;50.960;13.856;2023-07-22T13:36:19;59.61;29.13;78.50;;
78074;Laerm;67283;50.960;13.856;2023-07-22T13:38:47;60.84;32.83;76.36;;
78074;Laerm;67283;50.960;13.856;2023-07-22T13:41:15;63.40;32.36;78.70;;
78074;Laerm;67283;50.960;13.856;2023-07-22T13:43:43;58.15;31.41;72.92;;